Terminal Aerodrome Forecast
Issued by NWS Twin Cities, MN

Home | Current Version | Previous Version | Graphics & Text | Print | Product List | Glossary On
Versions: 1 2 3 4 5 6 7 8 9 10 11 12 13 14 15 16 17 18 19 20 21 22 23 24 25
000
FTUS43 KMPX 191400 AAA
TAFMSP
TAF AMD
KMSP 191420Z 1914/2018 21010G15KT P6SM FEW200 BKN300
     FM191900 23013G18KT P6SM FEW200
     FM200000 28007KT P6SM SKC
     FM200700 32006KT P6SM SKC=

USA.gov is the U.S. government's official web portal to all federal, state and local government web resources and services.